createdAt,value
2022-11-16T00:01:29.322Z,11.83
2022-11-16T00:03:57.495Z,11.88
2022-11-16T00:06:24.098Z,11.83
2022-11-16T00:09:13.758Z,11.84
2022-11-16T00:11:40.759Z,11.81
2022-11-16T00:14:07.513Z,11.79
2022-11-16T00:16:34.332Z,11.81
2022-11-16T00:19:03.865Z,11.78
2022-11-16T00:21:30.919Z,11.81
2022-11-16T00:23:57.900Z,11.71
2022-11-16T00:26:24.902Z,11.79
2022-11-16T00:28:55.191Z,11.80
2022-11-16T00:31:22.192Z,11.69
2022-11-16T00:33:49.440Z,11.63
2022-11-16T00:36:16.063Z,11.62
2022-11-16T00:38:42.554Z,11.70
2022-11-16T00:41:09.967Z,11.66
2022-11-16T00:43:37.038Z,11.65
2022-11-16T00:46:03.680Z,11.71
2022-11-16T00:48:30.221Z,11.62
2022-11-16T00:50:56.779Z,11.63
2022-11-16T00:53:23.152Z,11.65
2022-11-16T00:55:49.784Z,11.60
2022-11-16T00:58:18.112Z,11.62
2022-11-16T01:00:50.503Z,11.64
2022-11-16T01:03:16.829Z,11.69
2022-11-16T01:05:43.495Z,11.65
2022-11-16T01:08:09.907Z,11.65
2022-11-16T01:10:39.631Z,11.62
2022-11-16T01:13:06.275Z,11.64
2022-11-16T01:15:32.929Z,11.56
2022-11-16T01:17:59.254Z,11.61
2022-11-16T01:20:28.571Z,11.60
2022-11-16T01:22:55.353Z,11.54
2022-11-16T01:25:21.887Z,11.56
2022-11-16T01:27:48.420Z,11.51
2022-11-16T01:30:22.818Z,11.57
2022-11-16T01:32:58.601Z,11.53
2022-11-16T01:35:24.936Z,11.51
2022-11-16T01:37:51.738Z,11.61
2022-11-16T01:40:18.123Z,11.55
2022-11-16T01:42:44.980Z,11.54
2022-11-16T01:45:32.850Z,11.48
2022-11-16T01:47:59.640Z,11.43
2022-11-16T01:50:30.520Z,11.47
2022-11-16T01:53:02.228Z,11.49
2022-11-16T01:55:36.797Z,11.47
2022-11-16T01:58:17.532Z,11.53
2022-11-16T02:00:45.193Z,11.51
2022-11-16T02:03:30.000Z,11.55
2022-11-16T02:06:11.611Z,11.49
2022-11-16T02:09:01.717Z,11.53
2022-11-16T02:11:57.560Z,11.47
2022-11-16T02:15:03.419Z,11.45
2022-11-16T02:17:36.428Z,11.48
2022-11-16T02:20:25.515Z,11.51
2022-11-16T02:23:30.390Z,11.54
2022-11-16T02:26:14.692Z,11.47
2022-11-16T02:28:54.599Z,11.45
2022-11-16T02:31:27.163Z,11.48
2022-11-16T02:33:57.430Z,11.45
2022-11-16T02:36:25.111Z,11.48
2022-11-16T02:39:01.490Z,11.43
2022-11-16T02:41:31.941Z,11.45
2022-11-16T02:44:11.443Z,11.44
2022-11-16T02:46:42.609Z,11.39
2022-11-16T02:49:17.562Z,11.41
2022-11-16T02:51:47.373Z,11.43
2022-11-16T02:54:19.502Z,11.41
2022-11-16T02:57:17.468Z,11.43
2022-11-16T02:59:51.378Z,11.43
2022-11-16T03:02:39.536Z,11.42
2022-11-16T03:05:13.036Z,11.40
2022-11-16T03:08:18.905Z,11.41
2022-11-16T03:11:10.191Z,11.40
2022-11-16T03:13:37.919Z,11.41
2022-11-16T03:16:11.143Z,11.42
2022-11-16T03:18:39.548Z,11.39
2022-11-16T03:21:14.937Z,11.39
2022-11-16T03:23:44.753Z,11.39
2022-11-16T03:26:14.869Z,11.36
2022-11-16T03:28:50.092Z,11.35
2022-11-16T03:31:26.904Z,11.34
2022-11-16T03:34:00.954Z,11.35
2022-11-16T03:36:37.034Z,11.31
2022-11-16T03:39:08.210Z,11.28
2022-11-16T03:41:37.192Z,11.31
2022-11-16T03:44:04.782Z,11.29
2022-11-16T03:46:31.318Z,11.34
2022-11-16T03:48:59.593Z,11.32
2022-11-16T03:51:29.586Z,11.32
2022-11-16T03:53:56.593Z,11.31
2022-11-16T03:56:23.364Z,11.34
2022-11-16T03:58:49.781Z,11.31
2022-11-16T04:01:17.348Z,11.31
2022-11-16T04:03:44.985Z,11.35
2022-11-16T04:06:30.257Z,11.25
2022-11-16T04:09:15.224Z,11.24
2022-11-16T04:12:00.227Z,11.23
2022-11-16T04:14:46.209Z,11.27
2022-11-16T04:17:36.139Z,11.21
2022-11-16T04:20:21.747Z,11.23
2022-11-16T04:23:17.537Z,11.28
2022-11-16T04:25:46.350Z,11.24
2022-11-16T04:28:17.847Z,11.24
2022-11-16T04:31:11.906Z,11.20
2022-11-16T04:33:59.421Z,11.24
2022-11-16T04:36:45.804Z,11.22
2022-11-16T04:39:12.342Z,11.19
2022-11-16T04:41:57.580Z,11.18
2022-11-16T04:44:45.123Z,11.20
2022-11-16T04:47:12.034Z,11.12
2022-11-16T04:49:39.107Z,11.08
2022-11-16T04:52:06.636Z,11.15
2022-11-16T04:54:33.728Z,11.07
2022-11-16T04:57:00.107Z,11.10
2022-11-16T04:59:26.451Z,11.15
2022-11-16T05:02:08.293Z,11.04
2022-11-16T05:04:41.401Z,11.09
2022-11-16T05:07:11.735Z,11.12
2022-11-16T05:09:42.640Z,11.13
2022-11-16T05:12:14.671Z,11.12
2022-11-16T05:14:42.845Z,11.15
2022-11-16T05:17:10.236Z,11.15
2022-11-16T05:19:55.180Z,11.13
2022-11-16T05:22:23.970Z,11.10
2022-11-16T05:24:51.751Z,11.12
2022-11-16T05:27:19.810Z,11.08
2022-11-16T05:29:46.498Z,11.07
2022-11-16T05:32:17.341Z,11.01
2022-11-16T05:34:43.758Z,11.01
2022-11-16T05:37:10.525Z,10.97
2022-11-16T05:39:37.241Z,11.05
2022-11-16T05:42:04.675Z,11.06
2022-11-16T05:44:31.293Z,10.98
2022-11-16T05:46:57.717Z,11.00
2022-11-16T05:49:24.182Z,11.00
2022-11-16T05:51:51.539Z,11.04
2022-11-16T05:54:27.363Z,11.03
2022-11-16T05:56:54.879Z,10.96
2022-11-16T05:59:23.477Z,11.00
2022-11-16T06:01:53.316Z,11.02
2022-11-16T06:04:24.291Z,10.99
2022-11-16T06:06:51.023Z,10.92
2022-11-16T06:09:18.847Z,10.86
2022-11-16T06:11:46.069Z,10.97
2022-11-16T06:14:12.540Z,10.94
2022-11-16T06:16:39.213Z,10.88
2022-11-16T06:19:08.295Z,10.95
2022-11-16T06:21:35.723Z,10.91
2022-11-16T06:24:08.802Z,10.92
2022-11-16T06:26:36.650Z,10.94
2022-11-16T06:29:03.696Z,10.99
2022-11-16T06:31:30.523Z,10.98
2022-11-16T06:33:59.697Z,10.94
2022-11-16T06:36:27.836Z,10.95
2022-11-16T06:38:54.360Z,11.00
2022-11-16T06:41:22.022Z,10.99
2022-11-16T06:43:50.070Z,11.02
2022-11-16T06:46:19.475Z,11.02
2022-11-16T06:48:47.424Z,11.05
2022-11-16T06:51:14.241Z,11.10
2022-11-16T06:53:40.893Z,11.09
2022-11-16T06:56:08.013Z,11.07
2022-11-16T06:58:42.717Z,11.09
2022-11-16T07:01:11.470Z,11.14
2022-11-16T07:03:40.060Z,11.07
2022-11-16T07:06:12.404Z,11.06
2022-11-16T07:08:41.008Z,11.16
2022-11-16T07:11:10.430Z,11.03
2022-11-16T07:13:38.591Z,11.06
2022-11-16T07:16:11.268Z,11.07
2022-11-16T07:18:42.441Z,11.03
2022-11-16T07:21:11.958Z,11.10
2022-11-16T07:23:39.054Z,11.10
2022-11-16T07:26:09.112Z,11.06
2022-11-16T07:28:46.723Z,11.08
2022-11-16T07:31:16.544Z,11.08
2022-11-16T07:33:43.600Z,11.13
2022-11-16T07:36:36.063Z,11.10
2022-11-16T07:39:02.863Z,11.10
2022-11-16T07:41:29.899Z,11.07
2022-11-16T07:44:11.747Z,11.05
2022-11-16T07:46:48.400Z,10.98
2022-11-16T07:49:17.972Z,11.06
2022-11-16T07:51:53.999Z,11.04
2022-11-16T07:54:52.648Z,11.03
2022-11-16T07:57:21.543Z,11.08
2022-11-16T07:59:48.474Z,11.20
2022-11-16T08:02:15.728Z,11.16
2022-11-16T08:04:43.315Z,11.20
2022-11-16T08:07:10.101Z,11.20
2022-11-16T08:09:43.369Z,11.15
2022-11-16T08:12:13.262Z,11.13
2022-11-16T08:14:39.949Z,11.07
2022-11-16T08:17:08.223Z,11.02
2022-11-16T08:19:36.520Z,11.10
2022-11-16T08:22:03.714Z,11.05
2022-11-16T08:24:32.183Z,11.07
2022-11-16T08:26:58.948Z,11.10
2022-11-16T08:29:26.296Z,11.06
2022-11-16T08:31:53.752Z,10.93
2022-11-16T08:34:21.940Z,11.03
2022-11-16T08:36:56.774Z,11.10
2022-11-16T08:39:35.053Z,11.19
2022-11-16T08:42:01.804Z,11.18
2022-11-16T08:44:28.239Z,11.09
2022-11-16T08:46:57.370Z,11.18
2022-11-16T08:49:33.578Z,11.23
2022-11-16T08:52:00.038Z,11.21
2022-11-16T08:54:28.955Z,11.16
2022-11-16T08:56:56.167Z,11.13
2022-11-16T08:59:22.616Z,11.04
2022-11-16T09:01:51.810Z,11.02
2022-11-16T09:04:18.682Z,11.12
2022-11-16T09:06:45.867Z,11.17
2022-11-16T09:09:12.250Z,11.21
2022-11-16T09:11:38.662Z,11.26
2022-11-16T09:14:05.044Z,11.28
2022-11-16T09:16:31.589Z,11.28
2022-11-16T09:18:58.005Z,11.39
2022-11-16T09:21:27.035Z,11.43
2022-11-16T09:23:55.440Z,11.37
2022-11-16T09:26:23.390Z,11.51
2022-11-16T09:28:58.093Z,11.56
2022-11-16T09:31:27.277Z,11.59
2022-11-16T09:33:54.809Z,11.73
2022-11-16T09:36:21.310Z,11.69
2022-11-16T09:39:19.068Z,11.73
2022-11-16T09:42:01.374Z,11.69
2022-11-16T09:44:58.303Z,11.60
2022-11-16T09:47:38.378Z,11.67
2022-11-16T09:50:06.738Z,11.64
2022-11-16T09:52:36.635Z,11.65
2022-11-16T09:55:24.519Z,11.70
2022-11-16T09:57:54.862Z,11.82
2022-11-16T10:00:23.560Z,11.76
2022-11-16T10:03:02.374Z,11.79
2022-11-16T10:05:57.010Z,11.81
2022-11-16T10:08:40.116Z,11.84
2022-11-16T10:11:28.106Z,11.98
2022-11-16T10:14:12.142Z,12.11
2022-11-16T10:16:53.198Z,12.24
2022-11-16T10:19:55.831Z,12.17
2022-11-16T10:22:34.423Z,11.90
2022-11-16T10:25:13.055Z,11.64
2022-11-16T10:28:01.986Z,11.66
2022-11-16T10:30:29.241Z,11.49
2022-11-16T10:33:11.326Z,11.63
2022-11-16T10:35:45.412Z,11.87
2022-11-16T10:38:15.028Z,11.99
2022-11-16T10:40:42.089Z,12.10
2022-11-16T10:43:15.321Z,12.04
2022-11-16T10:45:57.770Z,12.11
2022-11-16T10:48:48.311Z,12.28
2022-11-16T10:51:14.783Z,12.50
2022-11-16T10:53:46.709Z,12.74
2022-11-16T10:56:30.117Z,12.90
2022-11-16T10:59:02.048Z,12.98
2022-11-16T11:01:36.236Z,13.02
2022-11-16T11:04:19.752Z,12.98
2022-11-16T11:06:48.339Z,12.85
2022-11-16T11:09:23.846Z,12.61
2022-11-16T11:12:22.530Z,12.64
2022-11-16T11:15:13.246Z,12.75
2022-11-16T11:17:42.157Z,12.77
2022-11-16T11:20:17.564Z,12.76
2022-11-16T11:22:50.182Z,12.64
2022-11-16T11:25:21.826Z,12.61
2022-11-16T11:27:49.468Z,12.81
2022-11-16T11:30:21.013Z,12.84
2022-11-16T11:32:48.389Z,12.97
2022-11-16T11:35:40.789Z,12.95
2022-11-16T11:38:08.323Z,13.06
2022-11-16T11:40:35.001Z,13.19
2022-11-16T11:43:05.935Z,13.14
2022-11-16T11:45:55.538Z,13.24
2022-11-16T11:48:47.814Z,13.33
2022-11-16T11:51:22.500Z,13.41
2022-11-16T11:54:03.008Z,13.46
2022-11-16T11:56:31.838Z,13.48
2022-11-16T11:58:58.497Z,13.48
2022-11-16T12:01:48.025Z,13.32
2022-11-16T12:04:26.751Z,13.15
2022-11-16T12:07:18.148Z,13.05
2022-11-16T12:09:50.869Z,12.89
2022-11-16T12:12:35.989Z,13.03
2022-11-16T12:15:07.104Z,13.25
2022-11-16T12:17:57.162Z,13.48
2022-11-16T12:20:41.802Z,13.43
2022-11-16T12:23:15.805Z,13.41
2022-11-16T12:26:06.450Z,13.37
2022-11-16T12:28:59.983Z,13.31
2022-11-16T12:31:48.694Z,13.33
2022-11-16T12:34:27.294Z,13.29
2022-11-16T12:37:04.011Z,13.24
2022-11-16T12:40:01.021Z,13.33
2022-11-16T12:42:33.393Z,13.19
2022-11-16T12:45:37.166Z,13.23
2022-11-16T12:48:21.305Z,13.32
2022-11-16T12:51:08.369Z,13.26
2022-11-16T12:53:59.207Z,13.32
2022-11-16T12:56:37.594Z,13.35
2022-11-16T12:59:24.273Z,13.28
2022-11-16T13:02:03.852Z,13.27
2022-11-16T13:04:35.885Z,13.35
2022-11-16T13:07:19.927Z,13.39
2022-11-16T13:09:51.129Z,13.38
2022-11-16T13:12:23.240Z,13.48
2022-11-16T13:14:52.775Z,13.35
2022-11-16T13:17:25.383Z,13.23
2022-11-16T13:20:27.605Z,13.14
2022-11-16T13:23:28.072Z,13.13
2022-11-16T13:26:13.626Z,13.10
2022-11-16T13:28:56.172Z,13.17
2022-11-16T13:31:28.504Z,13.14
2022-11-16T13:34:03.117Z,13.15
2022-11-16T13:36:32.305Z,13.12
2022-11-16T13:38:58.856Z,13.05
2022-11-16T13:41:33.356Z,13.02
2022-11-16T13:44:00.504Z,13.02
2022-11-16T13:46:55.797Z,12.99
2022-11-16T13:49:27.435Z,12.91
2022-11-16T13:52:16.828Z,12.86
2022-11-16T13:54:50.371Z,12.84
2022-11-16T13:57:26.094Z,12.75
2022-11-16T14:00:20.135Z,12.78
2022-11-16T14:02:47.268Z,12.84
2022-11-16T14:05:40.520Z,12.87
2022-11-16T14:08:38.991Z,12.87
2022-11-16T14:11:33.227Z,12.95
2022-11-16T14:14:05.738Z,12.95
2022-11-16T14:16:48.850Z,13.05
2022-11-16T14:19:43.623Z,13.06
2022-11-16T14:22:19.067Z,13.03
2022-11-16T14:25:01.359Z,13.11
2022-11-16T14:27:56.808Z,13.15
2022-11-16T14:30:32.084Z,13.14
2022-11-16T14:32:58.645Z,13.13
2022-11-16T14:35:40.351Z,13.15
2022-11-16T14:38:28.398Z,13.22
2022-11-16T14:40:59.429Z,13.28
2022-11-16T14:43:32.880Z,13.25
2022-11-16T14:46:04.071Z,13.24
2022-11-16T14:48:30.809Z,13.26
2022-11-16T14:51:03.878Z,13.27
2022-11-16T14:53:31.914Z,13.30
2022-11-16T14:56:13.552Z,13.29
2022-11-16T14:58:49.743Z,13.34
2022-11-16T15:01:18.010Z,13.26
2022-11-16T15:03:56.499Z,13.16
2022-11-16T15:06:25.852Z,13.08
2022-11-16T15:08:58.040Z,13.07
2022-11-16T15:11:52.045Z,13.05
2022-11-16T15:14:24.450Z,12.93
2022-11-16T15:16:56.076Z,12.88
2022-11-16T15:19:23.421Z,12.70
2022-11-16T15:21:55.131Z,12.67
2022-11-16T15:24:30.999Z,12.65
2022-11-16T15:27:24.012Z,12.52
2022-11-16T15:29:50.599Z,12.47
2022-11-16T15:32:17.607Z,12.34
2022-11-16T15:34:49.551Z,12.29
2022-11-16T15:37:26.746Z,12.20
2022-11-16T15:39:54.138Z,12.21
2022-11-16T15:42:22.406Z,12.14
2022-11-16T15:44:49.134Z,12.12
2022-11-16T15:47:16.304Z,12.22
2022-11-16T15:49:43.991Z,12.07
2022-11-16T15:52:11.139Z,12.03
2022-11-16T15:54:55.924Z,11.99
2022-11-16T15:57:23.959Z,11.84
2022-11-16T15:59:55.519Z,11.76
2022-11-16T16:02:25.699Z,11.72
2022-11-16T16:04:52.035Z,11.67
2022-11-16T16:07:38.571Z,11.45
2022-11-16T16:10:20.012Z,11.42
2022-11-16T16:12:51.500Z,11.39
2022-11-16T16:15:23.984Z,11.36
2022-11-16T16:17:50.733Z,11.23
2022-11-16T16:20:19.914Z,11.16
2022-11-16T16:22:46.342Z,11.12
2022-11-16T16:25:33.187Z,11.04
2022-11-16T16:28:00.186Z,11.09
2022-11-16T16:30:28.764Z,11.08
2022-11-16T16:32:55.662Z,11.07
2022-11-16T16:35:24.459Z,11.07
2022-11-16T16:37:57.279Z,11.03
2022-11-16T16:40:23.643Z,11.00
2022-11-16T16:42:50.852Z,11.03
2022-11-16T16:45:21.110Z,11.01
2022-11-16T16:47:47.797Z,11.07
2022-11-16T16:50:14.199Z,11.06
2022-11-16T16:52:40.534Z,11.04
2022-11-16T16:55:07.179Z,10.99
2022-11-16T16:57:33.564Z,11.00
2022-11-16T16:59:59.953Z,10.95
2022-11-16T17:02:26.745Z,10.84
2022-11-16T17:04:53.135Z,10.83
2022-11-16T17:07:19.637Z,10.81
2022-11-16T17:09:46.046Z,10.88
2022-11-16T17:12:12.723Z,10.81
2022-11-16T17:14:39.214Z,10.79
2022-11-16T17:17:05.612Z,10.79
2022-11-16T17:19:31.987Z,10.73
2022-11-16T17:21:59.273Z,10.69
2022-11-16T17:24:25.646Z,10.66
2022-11-16T17:26:52.083Z,10.64
2022-11-16T17:29:18.431Z,10.62
2022-11-16T17:31:46.946Z,10.68
2022-11-16T17:34:14.452Z,10.66
2022-11-16T17:36:41.844Z,10.62
2022-11-16T17:39:08.227Z,10.59
2022-11-16T17:41:34.768Z,10.60
2022-11-16T17:44:01.239Z,10.60
2022-11-16T17:46:28.868Z,10.60
2022-11-16T17:48:55.274Z,10.62
2022-11-16T17:51:24.906Z,10.64
2022-11-16T17:53:51.662Z,10.60
2022-11-16T17:56:23.173Z,10.51
2022-11-16T17:58:52.739Z,10.46
2022-11-16T18:01:19.227Z,10.43
2022-11-16T18:03:45.888Z,10.31
2022-11-16T18:06:15.362Z,10.34
2022-11-16T18:08:43.472Z,10.31
2022-11-16T18:11:14.323Z,10.26
2022-11-16T18:13:41.511Z,10.22
2022-11-16T18:16:15.367Z,10.22
2022-11-16T18:18:43.742Z,10.27
2022-11-16T18:21:15.901Z,10.23
2022-11-16T18:23:46.337Z,10.14
2022-11-16T18:26:14.962Z,10.12
2022-11-16T18:28:43.671Z,10.11
2022-11-16T18:31:12.789Z,10.11
2022-11-16T18:33:39.491Z,10.15
2022-11-16T18:36:07.212Z,10.12
2022-11-16T18:38:34.099Z,10.15
2022-11-16T18:41:07.578Z,10.08
2022-11-16T18:43:34.859Z,10.05
2022-11-16T18:46:01.891Z,10.05
2022-11-16T18:48:28.459Z,10.02
2022-11-16T18:51:02.619Z,9.98
2022-11-16T18:53:30.480Z,9.95
2022-11-16T18:55:58.218Z,9.90
2022-11-16T18:58:49.223Z,9.89
2022-11-16T19:01:14.572Z,9.86
2022-11-16T19:03:41.119Z,9.87
2022-11-16T19:06:09.001Z,9.88
2022-11-16T19:08:37.391Z,9.86
2022-11-16T19:11:15.171Z,9.76
2022-11-16T19:13:43.589Z,9.82
2022-11-16T19:16:11.934Z,9.85
2022-11-16T19:18:38.824Z,9.75
2022-11-16T19:21:11.508Z,9.70
2022-11-16T19:23:46.249Z,9.67
2022-11-16T19:26:14.767Z,9.62
2022-11-16T19:28:46.535Z,9.56
2022-11-16T19:31:16.183Z,9.53
2022-11-16T19:33:43.112Z,9.54
2022-11-16T19:36:17.565Z,9.61
2022-11-16T19:38:45.474Z,9.52
2022-11-16T19:41:13.348Z,9.48
2022-11-16T19:43:40.107Z,9.50
2022-11-16T19:46:11.638Z,9.43
2022-11-16T19:48:38.460Z,9.43
2022-11-16T19:51:09.899Z,9.35
2022-11-16T19:53:38.541Z,9.45
2022-11-16T19:56:06.386Z,9.43
2022-11-16T19:58:38.164Z,9.41
2022-11-16T20:01:07.040Z,9.35
2022-11-16T20:03:34.486Z,9.34
2022-11-16T20:06:19.805Z,9.39
2022-11-16T20:08:48.969Z,9.40
2022-11-16T20:11:18.054Z,9.41
2022-11-16T20:13:44.512Z,9.41
2022-11-16T20:16:12.971Z,9.45
2022-11-16T20:18:40.682Z,9.45
2022-11-16T20:21:10.027Z,9.48
2022-11-16T20:23:37.534Z,9.44
2022-11-16T20:26:07.027Z,9.48
2022-11-16T20:28:38.208Z,9.46
2022-11-16T20:31:08.741Z,9.47
2022-11-16T20:33:35.394Z,9.49
2022-11-16T20:36:08.032Z,9.51
2022-11-16T20:38:35.963Z,9.57
2022-11-16T20:41:16.411Z,9.62
2022-11-16T20:43:44.020Z,9.66
2022-11-16T20:46:12.471Z,9.66
2022-11-16T20:48:40.509Z,9.68
2022-11-16T20:51:08.696Z,9.75
2022-11-16T20:53:35.460Z,9.78
2022-11-16T20:56:03.170Z,9.84
2022-11-16T20:58:30.986Z,9.83
2022-11-16T21:01:02.108Z,9.86
2022-11-16T21:03:28.942Z,9.90
2022-11-16T21:05:55.670Z,9.87
2022-11-16T21:08:23.566Z,9.90
2022-11-16T21:10:49.945Z,9.92
2022-11-16T21:13:37.503Z,9.93
2022-11-16T21:16:06.934Z,9.95
2022-11-16T21:18:33.817Z,9.96
2022-11-16T21:21:02.782Z,10.08
2022-11-16T21:23:30.986Z,10.11
2022-11-16T21:26:05.421Z,10.18
2022-11-16T21:28:32.334Z,10.23
2022-11-16T21:31:10.459Z,10.26
2022-11-16T21:33:37.456Z,10.27
2022-11-16T21:36:10.421Z,10.38
2022-11-16T21:38:37.048Z,10.41
2022-11-16T21:41:06.404Z,10.38
2022-11-16T21:43:36.109Z,10.46
2022-11-16T21:46:06.188Z,10.41
2022-11-16T21:48:33.894Z,10.42
2022-11-16T21:51:01.869Z,10.40
2022-11-16T21:53:28.558Z,10.42
2022-11-16T21:55:55.028Z,10.48
2022-11-16T21:58:21.670Z,10.52
2022-11-16T22:00:48.039Z,10.58
2022-11-16T22:03:14.375Z,10.52
2022-11-16T22:05:59.266Z,10.51
2022-11-16T22:08:25.624Z,10.37
2022-11-16T22:10:52.828Z,10.42
2022-11-16T22:13:19.740Z,10.39
2022-11-16T22:15:46.402Z,10.45
2022-11-16T22:18:13.406Z,10.42
2022-11-16T22:20:39.940Z,10.39
2022-11-16T22:23:06.287Z,10.46
2022-11-16T22:25:32.682Z,10.46
2022-11-16T22:28:19.688Z,10.45
2022-11-16T22:30:50.192Z,10.52
2022-11-16T22:33:18.195Z,10.54
2022-11-16T22:35:46.715Z,10.60
2022-11-16T22:38:13.109Z,10.61
2022-11-16T22:40:39.456Z,10.60
2022-11-16T22:43:05.893Z,10.63
2022-11-16T22:45:32.218Z,10.60
2022-11-16T22:47:58.572Z,10.66
2022-11-16T22:50:25.037Z,10.68
2022-11-16T22:52:51.404Z,10.66
2022-11-16T22:55:17.734Z,10.66
2022-11-16T22:57:44.101Z,10.65
2022-11-16T23:00:11.008Z,10.73
2022-11-16T23:02:37.361Z,10.69
2022-11-16T23:05:03.974Z,10.75
2022-11-16T23:07:30.421Z,10.78
2022-11-16T23:09:56.777Z,10.84
2022-11-16T23:12:41.410Z,10.86
2022-11-16T23:15:50.407Z,10.83
2022-11-16T23:18:17.527Z,10.84
2022-11-16T23:21:02.382Z,10.85
2022-11-16T23:23:47.254Z,10.91
2022-11-16T23:26:40.572Z,10.96
2022-11-16T23:29:09.891Z,10.98
2022-11-16T23:31:37.322Z,10.97
2022-11-16T23:34:04.429Z,11.00
2022-11-16T23:36:30.782Z,10.97
2022-11-16T23:38:57.119Z,11.01
2022-11-16T23:41:41.810Z,11.08
2022-11-16T23:44:08.144Z,11.13
2022-11-16T23:46:34.559Z,11.12
2022-11-16T23:49:01.381Z,11.10
2022-11-16T23:51:27.736Z,11.17
2022-11-16T23:53:54.667Z,11.09
2022-11-16T23:56:23.416Z,11.01
2022-11-16T23:58:50.082Z,10.96
